createdAt,value
2023-10-17T00:02:28.755Z,34.21
2023-10-17T00:04:56.363Z,34.28
2023-10-17T00:07:29.198Z,34.10
2023-10-17T00:10:01.404Z,34.53
2023-10-17T00:12:41.146Z,34.26
2023-10-17T00:15:35.567Z,34.21
2023-10-17T00:18:15.796Z,34.47
2023-10-17T00:20:47.244Z,34.05
2023-10-17T00:23:21.614Z,34.63
2023-10-17T00:25:50.552Z,34.56
2023-10-17T00:28:21.793Z,34.55
2023-10-17T00:30:54.393Z,34.41
2023-10-17T00:33:25.219Z,34.32
2023-10-17T00:35:53.030Z,34.29
2023-10-17T00:38:23.764Z,34.26
2023-10-17T00:40:53.434Z,34.45
2023-10-17T00:43:21.283Z,34.56
2023-10-17T00:45:51.624Z,34.47
2023-10-17T00:48:23.936Z,34.29
2023-10-17T00:50:58.764Z,34.27
2023-10-17T00:53:28.202Z,34.62
2023-10-17T00:56:00.791Z,34.30
2023-10-17T00:58:28.786Z,34.31
2023-10-17T01:01:16.348Z,34.27
2023-10-17T01:03:45.218Z,34.38
2023-10-17T01:06:25.941Z,34.36
2023-10-17T01:08:56.146Z,33.97
2023-10-17T01:11:32.863Z,34.17
2023-10-17T01:14:02.174Z,34.17
2023-10-17T01:16:40.230Z,34.09
2023-10-17T01:19:12.835Z,34.18
2023-10-17T01:21:43.092Z,33.84
2023-10-17T01:24:16.508Z,33.95
2023-10-17T01:26:49.330Z,33.94
2023-10-17T01:29:22.722Z,33.75
2023-10-17T01:31:51.589Z,33.94
2023-10-17T01:34:20.124Z,34.01
2023-10-17T01:36:48.252Z,33.67
2023-10-17T01:39:21.772Z,33.72
2023-10-17T01:41:52.088Z,33.71
2023-10-17T01:44:19.407Z,33.85
2023-10-17T01:46:47.229Z,34.02
2023-10-17T01:49:20.785Z,34.00
2023-10-17T01:51:51.062Z,34.10
2023-10-17T01:54:22.598Z,34.02
2023-10-17T01:56:53.250Z,34.02
2023-10-17T01:59:29.175Z,34.25
2023-10-17T02:02:00.921Z,34.30
2023-10-17T02:04:28.889Z,34.21
2023-10-17T02:07:00.880Z,34.27
2023-10-17T02:09:31.115Z,34.02
2023-10-17T02:12:02.440Z,34.23
2023-10-17T02:14:32.913Z,34.50
2023-10-17T02:17:00.472Z,34.44
2023-10-17T02:19:32.988Z,34.47
2023-10-17T02:22:10.808Z,34.46
2023-10-17T02:24:41.453Z,34.63
2023-10-17T02:27:14.928Z,34.47
2023-10-17T02:29:47.571Z,34.45
2023-10-17T02:32:15.372Z,34.37
2023-10-17T02:34:48.235Z,34.34
2023-10-17T02:37:20.699Z,34.45
2023-10-17T02:39:49.945Z,34.29
2023-10-17T02:42:17.474Z,34.47
2023-10-17T02:44:47.833Z,34.35
2023-10-17T02:47:17.001Z,34.36
2023-10-17T02:49:53.114Z,34.09
2023-10-17T02:52:26.802Z,34.28
2023-10-17T02:54:58.485Z,34.36
2023-10-17T02:57:32.302Z,34.38
2023-10-17T03:00:22.032Z,34.40
2023-10-17T03:02:57.574Z,34.22
2023-10-17T03:05:28.991Z,34.45
2023-10-17T03:07:56.588Z,34.49
2023-10-17T03:10:38.999Z,34.39
2023-10-17T03:13:15.736Z,34.52
2023-10-17T03:15:50.014Z,34.35
2023-10-17T03:18:20.316Z,34.44
2023-10-17T03:20:53.806Z,34.41
2023-10-17T03:23:30.639Z,34.50
2023-10-17T03:26:04.387Z,34.07
2023-10-17T03:28:35.096Z,34.50
2023-10-17T03:31:12.469Z,34.43
2023-10-17T03:33:48.175Z,34.38
2023-10-17T03:36:45.280Z,34.65
2023-10-17T03:39:23.122Z,34.54
2023-10-17T03:41:59.483Z,34.28
2023-10-17T03:44:31.746Z,34.53
2023-10-17T03:47:05.488Z,34.50
2023-10-17T03:49:39.230Z,34.43
2023-10-17T03:52:08.356Z,34.47
2023-10-17T03:54:40.582Z,34.64
2023-10-17T03:57:20.078Z,34.29
2023-10-17T03:59:54.038Z,34.45
2023-10-17T04:02:25.961Z,34.55
2023-10-17T04:04:56.696Z,34.22
2023-10-17T04:07:32.801Z,34.69
2023-10-17T04:10:02.867Z,34.67
2023-10-17T04:12:54.378Z,34.54
2023-10-17T04:15:28.448Z,34.76
2023-10-17T04:18:00.251Z,34.58
2023-10-17T04:20:38.301Z,34.48
2023-10-17T04:23:07.064Z,34.53
2023-10-17T04:25:39.796Z,34.57
2023-10-17T04:28:17.759Z,34.87
2023-10-17T04:30:48.043Z,34.48
2023-10-17T04:33:21.308Z,34.56
2023-10-17T04:35:48.897Z,34.59
2023-10-17T04:38:28.527Z,34.55
2023-10-17T04:41:14.752Z,34.73
2023-10-17T04:43:56.409Z,34.61
2023-10-17T04:46:38.052Z,34.67
2023-10-17T04:49:18.699Z,34.73
2023-10-17T04:51:53.545Z,34.61
2023-10-17T04:54:41.103Z,34.60
2023-10-17T04:57:20.918Z,34.56
2023-10-17T04:59:51.156Z,34.30
2023-10-17T05:02:22.231Z,34.56
2023-10-17T05:04:57.292Z,34.47
2023-10-17T05:07:37.753Z,34.63
2023-10-17T05:10:21.032Z,34.59
2023-10-17T05:13:07.720Z,34.70
2023-10-17T05:15:57.264Z,34.64
2023-10-17T05:18:43.707Z,34.56
2023-10-17T05:21:33.312Z,34.48
2023-10-17T05:24:22.369Z,34.41
2023-10-17T05:27:14.322Z,34.38
2023-10-17T05:30:00.490Z,34.50
2023-10-17T05:32:49.472Z,34.59
2023-10-17T05:35:40.757Z,34.52
2023-10-17T05:38:33.168Z,34.49
2023-10-17T05:41:21.881Z,34.52
2023-10-17T05:44:08.374Z,34.73
2023-10-17T05:46:57.249Z,34.86
2023-10-17T05:49:49.006Z,34.58
2023-10-17T05:52:37.206Z,34.63
2023-10-17T05:55:29.918Z,34.68
2023-10-17T05:58:17.605Z,34.50
2023-10-17T06:01:03.837Z,34.68
2023-10-17T06:03:58.596Z,34.74
2023-10-17T06:06:48.346Z,35.01
2023-10-17T06:09:36.709Z,34.45
2023-10-17T06:12:23.299Z,34.76
2023-10-17T06:15:15.245Z,34.52
2023-10-17T06:17:49.493Z,35.14
2023-10-17T06:20:42.543Z,35.14
2023-10-17T06:23:46.044Z,35.58
2023-10-17T06:26:26.534Z,34.99
2023-10-17T06:29:20.604Z,35.16
2023-10-17T06:32:16.815Z,35.05
2023-10-17T06:34:48.586Z,34.56
2023-10-17T06:37:34.167Z,34.21
2023-10-17T06:40:13.752Z,33.77
2023-10-17T06:43:00.053Z,34.30
2023-10-17T06:45:38.541Z,34.24
2023-10-17T06:48:12.242Z,34.59
2023-10-17T06:51:04.505Z,34.38
2023-10-17T06:53:41.723Z,34.37
2023-10-17T06:56:16.136Z,34.71
2023-10-17T06:58:50.963Z,34.61
2023-10-17T07:01:29.404Z,34.54
2023-10-17T07:04:01.461Z,34.89
2023-10-17T07:06:30.622Z,34.82
2023-10-17T07:09:06.476Z,34.91
2023-10-17T07:11:39.805Z,35.03
2023-10-17T07:14:10.429Z,34.76
2023-10-17T07:16:59.715Z,35.12
2023-10-17T07:19:30.736Z,35.17
2023-10-17T07:22:02.216Z,35.26
2023-10-17T07:24:46.558Z,35.29
2023-10-17T07:27:22.427Z,35.23
2023-10-17T07:30:11.957Z,35.38
2023-10-17T07:32:55.757Z,35.53
2023-10-17T07:35:27.274Z,35.42
2023-10-17T07:38:02.020Z,35.16
2023-10-17T07:40:40.036Z,35.20
2023-10-17T07:43:14.326Z,35.56
2023-10-17T07:45:44.532Z,35.72
2023-10-17T07:48:27.308Z,35.43
2023-10-17T07:50:59.136Z,35.62
2023-10-17T07:53:36.792Z,36.11
2023-10-17T07:56:16.934Z,35.62
2023-10-17T07:58:48.781Z,35.70
2023-10-17T08:01:33.374Z,35.84
2023-10-17T08:04:19.688Z,35.64
2023-10-17T08:06:58.190Z,35.76
2023-10-17T08:09:40.583Z,35.75
2023-10-17T08:12:17.138Z,35.58
2023-10-17T08:14:50.774Z,35.46
2023-10-17T08:17:24.492Z,35.30
2023-10-17T08:20:16.610Z,35.39
2023-10-17T08:22:57.976Z,35.18
2023-10-17T08:25:34.600Z,35.58
2023-10-17T08:28:17.622Z,35.50
2023-10-17T08:30:53.194Z,35.37
2023-10-17T08:33:37.938Z,35.42
2023-10-17T08:36:12.380Z,35.33
2023-10-17T08:38:43.838Z,35.29
2023-10-17T08:41:17.829Z,35.40
2023-10-17T08:43:56.699Z,35.35
2023-10-17T08:46:27.572Z,35.05
2023-10-17T08:49:02.912Z,35.98
2023-10-17T08:51:33.362Z,35.36
2023-10-17T08:54:09.966Z,34.85
2023-10-17T08:56:54.137Z,35.36
2023-10-17T08:59:42.714Z,35.15
2023-10-17T09:02:31.392Z,34.90
2023-10-17T09:05:35.474Z,34.72
2023-10-17T09:08:13.286Z,34.96
2023-10-17T09:10:44.819Z,36.74
2023-10-17T09:13:35.978Z,35.22
2023-10-17T09:16:19.215Z,34.71
2023-10-17T09:18:50.730Z,34.86
2023-10-17T09:21:22.531Z,35.13
2023-10-17T09:23:53.469Z,34.81
2023-10-17T09:26:28.395Z,35.39
2023-10-17T09:29:07.195Z,34.76
2023-10-17T09:31:47.223Z,34.77
2023-10-17T09:34:24.958Z,34.91
2023-10-17T09:37:07.378Z,34.67
2023-10-17T09:39:48.039Z,35.44
2023-10-17T09:42:20.850Z,35.32
2023-10-17T09:44:52.987Z,35.13
2023-10-17T09:47:34.685Z,34.77
2023-10-17T09:50:09.771Z,34.98
2023-10-17T09:52:47.505Z,34.64
2023-10-17T09:55:19.952Z,34.80
2023-10-17T09:58:16.089Z,34.45
2023-10-17T10:00:54.180Z,34.26
2023-10-17T10:03:25.929Z,34.79
2023-10-17T10:06:20.592Z,34.52
2023-10-17T10:09:22.224Z,34.85
2023-10-17T10:11:52.583Z,34.88
2023-10-17T10:14:36.078Z,35.02
2023-10-17T10:17:10.701Z,34.78
2023-10-17T10:19:49.623Z,34.96
2023-10-17T10:22:23.240Z,35.12
2023-10-17T10:25:09.970Z,34.62
2023-10-17T10:27:46.827Z,34.94
2023-10-17T10:30:38.404Z,34.17
2023-10-17T10:33:14.908Z,34.51
2023-10-17T10:35:48.703Z,34.13
2023-10-17T10:38:21.584Z,34.31
2023-10-17T10:40:51.428Z,34.39
2023-10-17T10:43:28.086Z,34.55
2023-10-17T10:45:59.438Z,34.70
2023-10-17T10:48:27.986Z,34.94
2023-10-17T10:51:01.620Z,34.47
2023-10-17T10:53:40.485Z,34.63
2023-10-17T10:56:16.711Z,35.12
2023-10-17T10:58:56.660Z,34.69
2023-10-17T11:01:30.899Z,34.66
2023-10-17T11:04:02.135Z,35.10
2023-10-17T11:06:43.214Z,35.29
2023-10-17T11:09:17.490Z,35.21
2023-10-17T11:11:48.026Z,35.29
2023-10-17T11:14:23.788Z,35.28
2023-10-17T11:16:53.549Z,35.04
2023-10-17T11:19:31.858Z,35.01
2023-10-17T11:22:04.012Z,34.96
2023-10-17T11:24:31.982Z,35.37
2023-10-17T11:27:05.729Z,35.47
2023-10-17T11:29:40.200Z,35.39
2023-10-17T11:32:13.589Z,35.13
2023-10-17T11:34:48.230Z,35.09
2023-10-17T11:37:20.732Z,35.13
2023-10-17T11:39:52.839Z,35.09
2023-10-17T11:42:35.706Z,34.96
2023-10-17T11:45:34.281Z,34.63
2023-10-17T11:48:16.131Z,34.29
2023-10-17T11:50:53.990Z,34.23
2023-10-17T11:53:25.249Z,34.15
2023-10-17T11:55:57.055Z,34.48
2023-10-17T11:58:33.438Z,34.22
2023-10-17T12:01:07.041Z,33.70
2023-10-17T12:03:42.590Z,33.76
2023-10-17T12:06:20.008Z,33.52
2023-10-17T12:08:54.428Z,33.79
2023-10-17T12:11:28.299Z,33.72
2023-10-17T12:14:07.296Z,33.77
2023-10-17T12:16:40.479Z,34.19
2023-10-17T12:19:13.679Z,33.98
2023-10-17T12:21:49.102Z,34.36
2023-10-17T12:24:50.125Z,34.17
2023-10-17T12:27:21.871Z,34.20
2023-10-17T12:29:57.701Z,34.54
2023-10-17T12:32:33.170Z,34.62
2023-10-17T12:35:07.146Z,34.14
2023-10-17T12:37:45.122Z,34.68
2023-10-17T12:40:27.554Z,34.30
2023-10-17T12:43:02.870Z,34.26
2023-10-17T12:45:37.002Z,34.39
2023-10-17T12:48:13.519Z,34.75
2023-10-17T12:50:44.982Z,34.52
2023-10-17T12:53:14.190Z,34.93
2023-10-17T12:55:45.480Z,35.04
2023-10-17T12:58:30.203Z,35.11
2023-10-17T13:01:00.713Z,34.99
2023-10-17T13:03:38.037Z,35.21
2023-10-17T13:06:12.587Z,35.01
2023-10-17T13:08:49.227Z,35.19
2023-10-17T13:11:22.873Z,35.44
2023-10-17T13:13:56.720Z,35.42
2023-10-17T13:16:35.560Z,35.56
2023-10-17T13:19:17.812Z,35.57
2023-10-17T13:21:49.416Z,35.53
2023-10-17T13:24:20.244Z,35.39
2023-10-17T13:27:02.725Z,35.43
2023-10-17T13:29:43.947Z,35.82
2023-10-17T13:32:21.190Z,35.78
2023-10-17T13:34:57.441Z,35.85
2023-10-17T13:37:30.694Z,35.90
2023-10-17T13:39:59.010Z,36.15
2023-10-17T13:42:35.438Z,36.31
2023-10-17T13:45:14.845Z,36.05
2023-10-17T13:47:49.886Z,36.28
2023-10-17T13:50:27.287Z,36.41
2023-10-17T13:53:07.972Z,36.27
2023-10-17T13:55:43.672Z,36.21
2023-10-17T13:58:16.410Z,36.28
2023-10-17T14:00:55.772Z,36.26
2023-10-17T14:03:27.162Z,36.52
2023-10-17T14:05:55.866Z,37.68
2023-10-17T14:08:28.088Z,36.70
2023-10-17T14:11:08.010Z,36.79
2023-10-17T14:13:41.667Z,36.32
2023-10-17T14:16:14.493Z,36.24
2023-10-17T14:18:50.875Z,36.50
2023-10-17T14:21:35.920Z,36.29
2023-10-17T14:24:34.278Z,36.12
2023-10-17T14:27:13.689Z,35.60
2023-10-17T14:29:47.507Z,36.12
2023-10-17T14:32:31.467Z,35.60
2023-10-17T14:34:59.827Z,36.03
2023-10-17T14:37:31.928Z,35.88
2023-10-17T14:40:04.480Z,35.82
2023-10-17T14:42:34.698Z,35.87
2023-10-17T14:45:09.631Z,36.21
2023-10-17T14:47:40.366Z,36.19
2023-10-17T14:50:12.456Z,36.15
2023-10-17T14:52:45.463Z,36.22
2023-10-17T14:55:25.300Z,36.45
2023-10-17T14:57:58.449Z,36.40
2023-10-17T15:00:35.975Z,36.20
2023-10-17T15:03:07.207Z,35.90
2023-10-17T15:05:45.398Z,36.12
2023-10-17T15:08:20.718Z,36.00
2023-10-17T15:10:50.003Z,36.13
2023-10-17T15:13:30.541Z,36.20
2023-10-17T15:16:05.074Z,36.55
2023-10-17T15:18:36.533Z,36.14
2023-10-17T15:21:13.470Z,36.20
2023-10-17T15:23:46.743Z,36.24
2023-10-17T15:26:18.353Z,36.33
2023-10-17T15:28:54.676Z,35.92
2023-10-17T15:31:28.416Z,36.25
2023-10-17T15:33:59.647Z,35.92
2023-10-17T15:36:31.076Z,36.14
2023-10-17T15:39:04.704Z,36.51
2023-10-17T15:41:35.334Z,36.45
2023-10-17T15:44:04.842Z,36.22
2023-10-17T15:46:35.258Z,36.57
2023-10-17T15:49:03.312Z,36.65
2023-10-17T15:51:39.561Z,36.77
2023-10-17T15:54:10.706Z,36.60
2023-10-17T15:56:45.595Z,36.63
2023-10-17T15:59:16.842Z,36.64
2023-10-17T16:01:48.011Z,36.32
2023-10-17T16:04:16.229Z,36.40
2023-10-17T16:06:54.122Z,36.56
2023-10-17T16:09:29.632Z,36.67
2023-10-17T16:12:05.451Z,36.81
2023-10-17T16:14:38.784Z,36.58
2023-10-17T16:17:12.252Z,36.87
2023-10-17T16:19:48.100Z,36.64
2023-10-17T16:22:25.082Z,36.66
2023-10-17T16:24:57.962Z,36.93
2023-10-17T16:27:34.421Z,36.79
2023-10-17T16:30:04.957Z,36.54
2023-10-17T16:32:39.000Z,36.85
2023-10-17T16:35:07.344Z,36.73
2023-10-17T16:37:45.432Z,36.66
2023-10-17T16:40:20.966Z,37.08
2023-10-17T16:42:49.731Z,36.66
2023-10-17T16:45:20.552Z,36.64
2023-10-17T16:47:52.148Z,36.49
2023-10-17T16:50:25.452Z,36.43
2023-10-17T16:52:56.183Z,36.82
2023-10-17T16:55:28.732Z,36.73
2023-10-17T16:57:56.653Z,36.92
2023-10-17T17:00:28.839Z,36.88
2023-10-17T17:02:59.744Z,36.65
2023-10-17T17:05:32.126Z,36.72
2023-10-17T17:07:59.794Z,37.24
2023-10-17T17:10:31.328Z,36.81
2023-10-17T17:13:00.482Z,37.11
2023-10-17T17:15:28.720Z,36.99
2023-10-17T17:18:22.678Z,36.83
2023-10-17T17:20:46.675Z,36.79
2023-10-17T17:23:19.576Z,36.89
2023-10-17T17:25:49.892Z,37.07
2023-10-17T17:28:17.571Z,36.72
2023-10-17T17:30:50.768Z,36.83
2023-10-17T17:33:20.337Z,36.98
2023-10-17T17:35:53.243Z,36.80
2023-10-17T17:38:26.953Z,36.67
2023-10-17T17:40:59.616Z,36.80
2023-10-17T17:43:28.766Z,37.16
2023-10-17T17:45:56.589Z,36.81
2023-10-17T17:48:27.198Z,36.51
2023-10-17T17:50:59.920Z,36.91
2023-10-17T17:53:30.187Z,36.75
2023-10-17T17:56:00.368Z,37.08
2023-10-17T17:58:29.879Z,37.04
2023-10-17T18:01:01.334Z,36.93
2023-10-17T18:03:29.270Z,36.97
2023-10-17T18:06:00.953Z,36.79
2023-10-17T18:08:31.628Z,36.74
2023-10-17T18:11:04.915Z,37.00
2023-10-17T18:13:34.224Z,37.07
2023-10-17T18:16:03.938Z,36.83
2023-10-17T18:18:31.977Z,36.85
2023-10-17T18:21:08.680Z,36.34
2023-10-17T18:23:44.639Z,37.12
2023-10-17T18:26:22.060Z,36.97
2023-10-17T18:28:54.729Z,37.09
2023-10-17T18:31:23.028Z,37.15
2023-10-17T18:33:55.207Z,37.25
2023-10-17T18:36:31.011Z,36.84
2023-10-17T18:39:03.877Z,37.06
2023-10-17T18:41:38.401Z,36.93
2023-10-17T18:44:11.917Z,36.86
2023-10-17T18:46:45.751Z,36.95
2023-10-17T18:49:15.789Z,36.92
2023-10-17T18:51:48.400Z,36.96
2023-10-17T18:54:17.523Z,37.00
2023-10-17T18:56:45.141Z,37.28
2023-10-17T18:59:14.990Z,36.93
2023-10-17T19:01:43.103Z,37.05
2023-10-17T19:04:11.695Z,37.09
2023-10-17T19:06:43.639Z,37.25
2023-10-17T19:09:16.298Z,36.82
2023-10-17T19:11:43.979Z,36.91
2023-10-17T19:14:11.746Z,37.07
2023-10-17T19:16:41.797Z,36.81
2023-10-17T19:19:10.268Z,37.03
2023-10-17T19:21:40.742Z,36.96
2023-10-17T19:24:12.094Z,36.85
2023-10-17T19:26:42.584Z,36.74
2023-10-17T19:29:10.508Z,37.23
2023-10-17T19:31:41.491Z,37.02
2023-10-17T19:34:12.964Z,37.29
2023-10-17T19:36:46.140Z,36.96
2023-10-17T19:39:17.049Z,36.71
2023-10-17T19:41:48.572Z,37.06
2023-10-17T19:44:19.792Z,36.87
2023-10-17T19:46:48.120Z,37.02
2023-10-17T19:49:17.790Z,36.93
2023-10-17T19:51:45.998Z,36.85
2023-10-17T19:54:16.620Z,37.03
2023-10-17T19:56:47.449Z,36.74
2023-10-17T19:59:20.504Z,36.88
2023-10-17T20:01:48.674Z,37.00
2023-10-17T20:04:18.667Z,36.99
2023-10-17T20:06:55.265Z,36.88
2023-10-17T20:09:27.695Z,36.96
2023-10-17T20:11:56.730Z,36.85
2023-10-17T20:14:25.152Z,36.93
2023-10-17T20:16:55.979Z,37.18
2023-10-17T20:19:26.646Z,36.79
2023-10-17T20:21:55.150Z,36.84
2023-10-17T20:24:25.423Z,36.88
2023-10-17T20:26:53.186Z,36.93
2023-10-17T20:29:23.173Z,36.78
2023-10-17T20:31:56.003Z,36.70
2023-10-17T20:34:32.061Z,37.01
2023-10-17T20:36:59.630Z,36.80
2023-10-17T20:39:31.011Z,36.89
2023-10-17T20:42:01.567Z,37.20
2023-10-17T20:44:32.024Z,36.78
2023-10-17T20:47:05.933Z,36.98
2023-10-17T20:49:37.002Z,36.60
2023-10-17T20:52:05.972Z,36.77
2023-10-17T20:54:33.987Z,36.63
2023-10-17T20:57:01.681Z,36.85
2023-10-17T20:59:32.683Z,36.68
2023-10-17T21:02:08.007Z,36.71
2023-10-17T21:04:35.881Z,36.67
2023-10-17T21:07:09.309Z,36.55
2023-10-17T21:09:38.033Z,37.01
2023-10-17T21:12:06.409Z,36.98
2023-10-17T21:14:34.260Z,36.75
2023-10-17T21:17:02.004Z,36.77
2023-10-17T21:19:35.643Z,36.91
2023-10-17T21:22:04.776Z,36.81
2023-10-17T21:24:36.726Z,36.76
2023-10-17T21:27:05.357Z,36.65
2023-10-17T21:29:33.706Z,36.78
2023-10-17T21:32:04.296Z,36.76
2023-10-17T21:34:37.304Z,36.81
2023-10-17T21:37:10.933Z,36.90
2023-10-17T21:39:40.461Z,36.86
2023-10-17T21:42:12.195Z,36.77
2023-10-17T21:44:39.929Z,36.65
2023-10-17T21:47:12.539Z,36.59
2023-10-17T21:49:43.018Z,36.82
2023-10-17T21:52:12.035Z,36.75
2023-10-17T21:54:40.600Z,36.85
2023-10-17T21:57:16.152Z,36.71
2023-10-17T21:59:48.638Z,36.91
2023-10-17T22:02:18.715Z,36.74
2023-10-17T22:04:49.430Z,36.66
2023-10-17T22:07:17.114Z,36.62
2023-10-17T22:09:47.416Z,36.75
2023-10-17T22:12:19.940Z,36.68
2023-10-17T22:14:51.014Z,36.64
2023-10-17T22:17:24.127Z,36.82
2023-10-17T22:19:53.028Z,36.86
2023-10-17T22:22:23.821Z,36.76
2023-10-17T22:24:55.757Z,36.65
2023-10-17T22:27:27.266Z,36.80
2023-10-17T22:29:57.343Z,36.69
2023-10-17T22:32:30.894Z,36.67
2023-10-17T22:35:01.258Z,36.67
2023-10-17T22:37:32.826Z,36.60
2023-10-17T22:40:00.546Z,36.79
2023-10-17T22:42:31.262Z,36.34
2023-10-17T22:45:01.161Z,36.43
2023-10-17T22:47:33.069Z,36.68
2023-10-17T22:50:02.927Z,36.50
2023-10-17T22:52:41.382Z,36.66
2023-10-17T22:55:12.348Z,36.65
2023-10-17T22:57:42.637Z,36.56
2023-10-17T23:00:23.251Z,36.55
2023-10-17T23:02:54.868Z,36.72
2023-10-17T23:05:27.396Z,36.50
2023-10-17T23:07:58.153Z,36.76
2023-10-17T23:10:25.811Z,36.71
2023-10-17T23:12:58.461Z,36.67
2023-10-17T23:15:26.983Z,36.46
2023-10-17T23:17:57.262Z,36.48
2023-10-17T23:20:31.786Z,36.77
2023-10-17T23:23:02.786Z,36.65
2023-10-17T23:25:37.875Z,36.73
2023-10-17T23:28:08.500Z,36.78
2023-10-17T23:30:37.061Z,36.84
2023-10-17T23:33:05.492Z,36.83
2023-10-17T23:35:36.171Z,36.82
2023-10-17T23:38:06.724Z,36.79
2023-10-17T23:40:34.384Z,36.44
2023-10-17T23:43:10.093Z,36.67
2023-10-17T23:45:40.277Z,36.79
2023-10-17T23:48:16.325Z,36.25
2023-10-17T23:50:43.967Z,36.67
2023-10-17T23:53:14.361Z,36.46
2023-10-17T23:55:41.953Z,36.67
2023-10-17T23:58:10.275Z,36.63
